createdAt,value
2023-10-02T00:02:39.707Z,13.87
2023-10-02T00:05:11.427Z,13.17
2023-10-02T00:07:46.521Z,12.83
2023-10-02T00:10:18.096Z,15.27
2023-10-02T00:12:59.808Z,14.17
2023-10-02T00:15:28.790Z,12.90
2023-10-02T00:17:58.546Z,14.77
2023-10-02T00:20:28.099Z,13.50
2023-10-02T00:22:56.778Z,13.57
2023-10-02T00:25:29.247Z,14.17
2023-10-02T00:28:01.208Z,14.07
2023-10-02T00:30:37.515Z,13.97
2023-10-02T00:33:13.051Z,13.40
2023-10-02T00:35:52.626Z,15.23
2023-10-02T00:38:21.447Z,14.13
2023-10-02T00:40:52.173Z,13.60
2023-10-02T00:43:35.906Z,14.57
2023-10-02T00:46:05.593Z,14.40
2023-10-02T00:48:35.230Z,13.67
2023-10-02T00:51:12.953Z,14.60
2023-10-02T00:53:49.576Z,14.60
2023-10-02T00:56:22.818Z,13.47
2023-10-02T00:59:00.834Z,15.27
2023-10-02T01:01:32.393Z,14.67
2023-10-02T01:04:13.388Z,14.23
2023-10-02T01:07:07.089Z,14.13
2023-10-02T01:09:36.922Z,14.90
2023-10-02T01:12:11.939Z,15.03
2023-10-02T01:14:52.706Z,14.73
2023-10-02T01:17:23.560Z,14.93
2023-10-02T01:19:57.550Z,15.23
2023-10-02T01:22:29.060Z,15.37
2023-10-02T01:25:14.295Z,14.10
2023-10-02T01:27:48.675Z,14.87
2023-10-02T01:30:20.002Z,13.50
2023-10-02T01:33:08.582Z,14.37
2023-10-02T01:35:38.679Z,14.77
2023-10-02T01:38:14.316Z,14.20
2023-10-02T01:40:50.726Z,14.50
2023-10-02T01:43:25.640Z,14.80
2023-10-02T01:45:58.357Z,13.40
2023-10-02T01:48:41.526Z,14.40
2023-10-02T01:51:21.634Z,13.97
2023-10-02T01:53:54.311Z,15.07
2023-10-02T01:56:27.139Z,14.90
2023-10-02T01:59:09.787Z,15.50
2023-10-02T02:01:53.382Z,15.43
2023-10-02T02:04:24.418Z,14.93
2023-10-02T02:06:55.829Z,14.87
2023-10-02T02:09:26.411Z,14.87
2023-10-02T02:12:08.671Z,15.30
2023-10-02T02:14:42.942Z,16.03
2023-10-02T02:17:13.175Z,15.57
2023-10-02T02:19:50.237Z,16.13
2023-10-02T02:22:24.726Z,16.07
2023-10-02T02:24:54.509Z,15.67
2023-10-02T02:27:24.649Z,16.20
2023-10-02T02:29:58.116Z,15.87
2023-10-02T02:32:45.691Z,15.03
2023-10-02T02:35:16.908Z,15.30
2023-10-02T02:37:46.335Z,16.00
2023-10-02T02:40:27.882Z,15.83
2023-10-02T02:42:58.581Z,16.03
2023-10-02T02:45:30.323Z,16.07
2023-10-02T02:48:06.555Z,16.23
2023-10-02T02:50:37.416Z,16.23
2023-10-02T02:53:23.479Z,16.77
2023-10-02T02:56:16.488Z,16.47
2023-10-02T02:58:49.622Z,17.07
2023-10-02T03:01:23.767Z,16.30
2023-10-02T03:03:53.339Z,17.30
2023-10-02T03:06:24.544Z,16.97
2023-10-02T03:08:54.290Z,16.87
2023-10-02T03:11:30.385Z,16.83
2023-10-02T03:14:13.934Z,17.87
2023-10-02T03:16:46.344Z,16.40
2023-10-02T03:19:17.697Z,16.40
2023-10-02T03:21:48.582Z,16.50
2023-10-02T03:24:20.715Z,16.90
2023-10-02T03:26:55.020Z,16.93
2023-10-02T03:29:24.987Z,16.40
2023-10-02T03:31:54.110Z,16.77
2023-10-02T03:34:36.254Z,16.77
2023-10-02T03:37:14.848Z,16.77
2023-10-02T03:40:01.067Z,16.93
2023-10-02T03:42:33.856Z,16.93
2023-10-02T03:45:06.625Z,16.97
2023-10-02T03:47:36.340Z,16.97
2023-10-02T03:50:11.643Z,17.20
2023-10-02T03:52:42.797Z,16.97
2023-10-02T03:55:19.930Z,17.10
2023-10-02T03:57:52.567Z,17.60
2023-10-02T04:00:24.050Z,17.53
2023-10-02T04:02:55.455Z,17.13
2023-10-02T04:05:37.360Z,17.53
2023-10-02T04:08:23.593Z,17.57
2023-10-02T04:10:57.562Z,17.03
2023-10-02T04:13:30.438Z,18.13
2023-10-02T04:16:14.781Z,17.60
2023-10-02T04:18:51.235Z,18.57
2023-10-02T04:21:24.626Z,18.80
2023-10-02T04:23:54.748Z,19.10
2023-10-02T04:26:25.257Z,18.10
2023-10-02T04:29:00.520Z,17.87
2023-10-02T04:31:35.738Z,17.77
2023-10-02T04:34:17.638Z,18.67
2023-10-02T04:36:46.642Z,18.27
2023-10-02T04:39:33.904Z,18.97
2023-10-02T04:42:23.959Z,18.37
2023-10-02T04:44:58.498Z,18.70
2023-10-02T04:47:32.402Z,18.77
2023-10-02T04:50:20.056Z,19.37
2023-10-02T04:52:59.411Z,18.37
2023-10-02T04:55:33.020Z,18.90
2023-10-02T04:58:10.888Z,18.70
2023-10-02T05:01:03.522Z,19.43
2023-10-02T05:03:35.771Z,19.60
2023-10-02T05:06:05.691Z,17.33
2023-10-02T05:08:41.578Z,18.87
2023-10-02T05:11:25.634Z,19.03
2023-10-02T05:14:01.666Z,19.40
2023-10-02T05:16:35.115Z,19.90
2023-10-02T05:19:08.179Z,20.10
2023-10-02T05:21:37.844Z,19.20
2023-10-02T05:24:13.092Z,20.13
2023-10-02T05:26:45.487Z,21.10
2023-10-02T05:29:19.315Z,18.97
2023-10-02T05:31:49.058Z,19.93
2023-10-02T05:34:24.377Z,19.20
2023-10-02T05:37:13.994Z,19.03
2023-10-02T05:39:43.186Z,19.40
2023-10-02T05:42:15.265Z,18.97
2023-10-02T05:44:48.428Z,19.80
2023-10-02T05:47:17.982Z,21.40
2023-10-02T05:49:51.149Z,19.13
2023-10-02T05:52:26.756Z,19.33
2023-10-02T05:54:56.085Z,19.93
2023-10-02T05:57:32.981Z,20.10
2023-10-02T06:00:06.500Z,19.20
2023-10-02T06:02:35.599Z,19.27
2023-10-02T06:05:13.543Z,19.10
2023-10-02T06:07:42.266Z,19.70
2023-10-02T06:10:26.343Z,19.53
2023-10-02T06:13:04.990Z,20.67
2023-10-02T06:15:48.542Z,21.53
2023-10-02T06:18:26.394Z,20.37
2023-10-02T06:21:02.559Z,20.13
2023-10-02T06:23:39.227Z,20.43
2023-10-02T06:26:11.245Z,19.63
2023-10-02T06:28:43.611Z,20.13
2023-10-02T06:31:12.310Z,20.13
2023-10-02T06:33:40.803Z,18.17
2023-10-02T06:36:11.347Z,19.50
2023-10-02T06:38:41.363Z,19.10
2023-10-02T06:41:14.414Z,19.27
2023-10-02T06:43:43.537Z,19.30
2023-10-02T06:46:17.303Z,18.90
2023-10-02T06:48:48.362Z,18.07
2023-10-02T06:51:20.425Z,18.70
2023-10-02T06:53:51.170Z,19.00
2023-10-02T06:56:20.738Z,17.67
2023-10-02T06:58:53.654Z,18.43
2023-10-02T07:01:28.642Z,18.60
2023-10-02T07:04:10.708Z,17.67
2023-10-02T07:06:41.058Z,17.57
2023-10-02T07:09:19.684Z,19.27
2023-10-02T07:11:48.099Z,17.33
2023-10-02T07:14:16.919Z,19.43
2023-10-02T07:16:48.813Z,17.63
2023-10-02T07:19:28.709Z,18.17
2023-10-02T07:21:58.548Z,17.73
2023-10-02T07:24:29.698Z,19.13
2023-10-02T07:27:00.618Z,18.37
2023-10-02T07:29:40.474Z,18.57
2023-10-02T07:32:11.011Z,18.17
2023-10-02T07:34:40.602Z,17.83
2023-10-02T07:37:12.084Z,17.60
2023-10-02T07:39:40.574Z,16.90
2023-10-02T07:42:11.808Z,17.97
2023-10-02T07:44:41.864Z,18.07
2023-10-02T07:47:18.111Z,17.97
2023-10-02T07:49:50.323Z,17.63
2023-10-02T07:52:38.122Z,17.10
2023-10-02T07:55:12.172Z,16.93
2023-10-02T07:57:41.127Z,16.97
2023-10-02T08:00:31.885Z,17.07
2023-10-02T08:03:03.943Z,17.60
2023-10-02T08:05:35.967Z,17.70
2023-10-02T08:08:10.713Z,16.60
2023-10-02T08:10:51.406Z,17.50
2023-10-02T08:13:33.603Z,17.43
2023-10-02T08:16:13.258Z,17.33
2023-10-02T08:18:55.883Z,17.67
2023-10-02T08:21:35.620Z,17.30
2023-10-02T08:24:07.039Z,17.50
2023-10-02T08:26:41.762Z,16.93
2023-10-02T08:29:12.106Z,18.30
2023-10-02T08:31:44.707Z,16.77
2023-10-02T08:34:15.829Z,17.13
2023-10-02T08:36:44.985Z,17.83
2023-10-02T08:39:23.277Z,17.87
2023-10-02T08:41:52.993Z,17.90
2023-10-02T08:44:24.092Z,17.77
2023-10-02T08:46:56.784Z,17.40
2023-10-02T08:49:27.577Z,17.13
2023-10-02T08:51:57.860Z,17.03
2023-10-02T08:54:30.042Z,18.63
2023-10-02T08:57:08.282Z,18.43
2023-10-02T08:59:43.927Z,19.80
2023-10-02T09:02:17.747Z,18.37
2023-10-02T09:05:11.707Z,17.80
2023-10-02T09:08:02.735Z,18.53
2023-10-02T09:10:36.458Z,18.37
2023-10-02T09:13:16.094Z,19.08
2023-10-02T09:15:50.835Z,18.17
2023-10-02T09:18:36.637Z,19.20
2023-10-02T09:21:16.933Z,18.27
2023-10-02T09:23:53.188Z,18.77
2023-10-02T09:26:26.450Z,19.00
2023-10-02T09:29:02.984Z,18.73
2023-10-02T09:31:36.214Z,18.95
2023-10-02T09:34:44.431Z,19.02
2023-10-02T09:38:05.086Z,19.50
2023-10-02T09:40:15.195Z,18.15
2023-10-02T09:42:49.829Z,19.02
2023-10-02T09:45:32.962Z,19.33
2023-10-02T09:48:07.356Z,17.92
2023-10-02T09:50:47.875Z,17.95
2023-10-02T09:53:18.771Z,17.73
2023-10-02T09:56:10.619Z,27.27
2023-10-02T09:58:50.724Z,26.13
2023-10-02T10:01:36.562Z,18.58
2023-10-02T10:04:25.607Z,15.70
2023-10-02T10:07:28.253Z,15.13
2023-10-02T10:10:29.368Z,15.95
2023-10-02T10:12:59.721Z,15.93
2023-10-02T10:15:33.124Z,16.13
2023-10-02T10:18:04.740Z,15.25
2023-10-02T10:20:32.479Z,14.73
2023-10-02T10:23:24.961Z,15.65
2023-10-02T10:25:54.861Z,14.98
2023-10-02T10:28:30.595Z,14.57
2023-10-02T10:31:10.297Z,14.07
2023-10-02T10:33:42.871Z,14.32
2023-10-02T10:36:38.703Z,14.55
2023-10-02T10:39:44.732Z,15.25
2023-10-02T10:42:12.353Z,15.40
2023-10-02T10:44:44.719Z,15.35
2023-10-02T10:47:15.880Z,15.57
2023-10-02T10:49:55.667Z,15.35
2023-10-02T10:52:36.204Z,15.82
2023-10-02T10:55:33.656Z,16.25
2023-10-02T10:58:06.917Z,16.05
2023-10-02T11:00:43.412Z,16.17
2023-10-02T11:03:16.333Z,15.50
2023-10-02T11:05:45.644Z,17.48
2023-10-02T11:08:30.112Z,17.65
2023-10-02T11:11:12.715Z,16.50
2023-10-02T11:13:54.148Z,16.67
2023-10-02T11:16:36.414Z,16.75
2023-10-02T11:19:31.702Z,16.27
2023-10-02T11:22:18.252Z,19.10
2023-10-02T11:24:50.887Z,17.98
2023-10-02T11:27:19.651Z,16.08
2023-10-02T11:30:04.812Z,18.40
2023-10-02T11:32:52.021Z,17.50
2023-10-02T11:35:22.616Z,16.88
2023-10-02T11:37:52.151Z,18.52
2023-10-02T11:40:25.635Z,16.85
2023-10-02T11:42:54.809Z,19.00
2023-10-02T11:45:23.308Z,18.30
2023-10-02T11:47:52.637Z,19.40
2023-10-02T11:50:23.067Z,19.98
2023-10-02T11:52:52.004Z,20.27
2023-10-02T11:55:20.526Z,20.08
2023-10-02T11:57:52.855Z,19.08
2023-10-02T12:00:23.712Z,19.75
2023-10-02T12:02:52.819Z,20.58
2023-10-02T12:05:24.166Z,19.45
2023-10-02T12:07:52.942Z,19.98
2023-10-02T12:10:22.005Z,18.10
2023-10-02T12:12:50.596Z,20.38
2023-10-02T12:15:20.776Z,19.45
2023-10-02T12:17:49.928Z,18.58
2023-10-02T12:20:24.492Z,19.73
2023-10-02T12:22:54.947Z,19.40
2023-10-02T12:25:23.606Z,18.08
2023-10-02T12:27:53.597Z,18.63
2023-10-02T12:30:22.199Z,17.73
2023-10-02T12:32:51.743Z,18.73
2023-10-02T12:35:20.971Z,17.67
2023-10-02T12:37:51.825Z,17.85
2023-10-02T12:40:23.236Z,17.15
2023-10-02T12:42:51.843Z,18.50
2023-10-02T12:45:20.380Z,16.00
2023-10-02T12:47:49.164Z,17.98
2023-10-02T12:50:19.824Z,19.58
2023-10-02T12:52:48.244Z,17.73
2023-10-02T12:55:18.194Z,17.40
2023-10-02T12:57:48.108Z,19.88
2023-10-02T13:00:19.608Z,19.38
2023-10-02T13:02:49.665Z,17.50
2023-10-02T13:05:21.118Z,17.20
2023-10-02T13:07:52.021Z,17.25
2023-10-02T13:10:20.510Z,16.77
2023-10-02T13:12:50.719Z,17.95
2023-10-02T13:15:20.373Z,17.15
2023-10-02T13:17:49.529Z,17.88
2023-10-02T13:20:18.163Z,17.50
2023-10-02T13:22:48.159Z,19.27
2023-10-02T13:25:17.055Z,19.00
2023-10-02T13:27:45.694Z,18.48
2023-10-02T13:30:20.148Z,18.20
2023-10-02T13:32:48.730Z,18.73
2023-10-02T13:35:17.522Z,18.70
2023-10-02T13:37:46.280Z,18.77
2023-10-02T13:40:32.816Z,17.63
2023-10-02T13:43:01.852Z,19.02
2023-10-02T13:45:31.784Z,20.48
2023-10-02T13:48:00.468Z,19.90
2023-10-02T13:50:29.918Z,20.08
2023-10-02T13:53:00.505Z,18.05
2023-10-02T13:55:29.248Z,19.33
2023-10-02T13:57:58.543Z,19.48
2023-10-02T14:00:27.854Z,18.67
2023-10-02T14:02:58.034Z,18.35
2023-10-02T14:05:30.757Z,19.27
2023-10-02T14:07:59.714Z,19.45
2023-10-02T14:10:30.837Z,18.40
2023-10-02T14:12:59.349Z,18.48
2023-10-02T14:15:28.597Z,18.48
2023-10-02T14:17:58.707Z,19.73
2023-10-02T14:20:28.221Z,19.45
2023-10-02T14:22:57.059Z,18.42
2023-10-02T14:25:25.947Z,19.20
2023-10-02T14:27:54.826Z,19.40
2023-10-02T14:30:24.150Z,19.15
2023-10-02T14:32:54.083Z,18.92
2023-10-02T14:35:42.994Z,19.13
2023-10-02T14:38:15.990Z,18.55
2023-10-02T14:40:46.290Z,18.33
2023-10-02T14:43:15.730Z,17.77
2023-10-02T14:45:46.901Z,18.63
2023-10-02T14:48:36.026Z,19.48
2023-10-02T14:51:10.919Z,17.55
2023-10-02T14:53:40.036Z,18.05
2023-10-02T14:56:08.482Z,17.52
2023-10-02T14:58:42.362Z,36.08
2023-10-02T15:01:14.213Z,18.08
2023-10-02T15:03:43.819Z,16.38
2023-10-02T15:06:14.075Z,17.15
2023-10-02T15:08:43.096Z,16.17
2023-10-02T15:11:15.682Z,15.85
2023-10-02T15:13:46.511Z,15.57
2023-10-02T15:16:17.017Z,16.67
2023-10-02T15:18:47.492Z,17.38
2023-10-02T15:21:20.446Z,16.40
2023-10-02T15:23:49.635Z,17.55
2023-10-02T15:26:19.358Z,17.20
2023-10-02T15:28:51.476Z,17.73
2023-10-02T15:31:21.455Z,17.52
2023-10-02T15:33:50.061Z,16.73
2023-10-02T15:36:19.993Z,16.40
2023-10-02T15:38:49.462Z,16.45
2023-10-02T15:41:31.981Z,16.73
2023-10-02T15:44:01.244Z,17.23
2023-10-02T15:46:30.045Z,16.60
2023-10-02T15:48:59.157Z,15.32
2023-10-02T15:51:29.378Z,17.48
2023-10-02T15:53:57.858Z,17.45
2023-10-02T15:56:28.828Z,16.27
2023-10-02T15:58:57.789Z,16.08
2023-10-02T16:01:26.844Z,17.00
2023-10-02T16:03:55.357Z,17.00
2023-10-02T16:06:25.316Z,18.17
2023-10-02T16:08:55.772Z,17.50
2023-10-02T16:11:24.873Z,18.05
2023-10-02T16:13:53.805Z,17.55
2023-10-02T16:16:24.632Z,16.67
2023-10-02T16:18:53.460Z,17.60
2023-10-02T16:21:23.592Z,16.10
2023-10-02T16:23:54.213Z,17.58
2023-10-02T16:26:25.445Z,15.70
2023-10-02T16:28:54.065Z,16.38
2023-10-02T16:31:26.768Z,16.63
2023-10-02T16:33:55.653Z,15.98
2023-10-02T16:36:26.523Z,15.95
2023-10-02T16:39:05.593Z,15.18
2023-10-02T16:41:36.912Z,16.30
2023-10-02T16:44:06.694Z,15.70
2023-10-02T16:46:36.835Z,14.95
2023-10-02T16:49:06.293Z,16.13
2023-10-02T16:51:35.004Z,17.35
2023-10-02T16:54:05.232Z,16.65
2023-10-02T16:56:33.851Z,17.08
2023-10-02T16:59:03.441Z,16.38
2023-10-02T17:01:32.154Z,16.95
2023-10-02T17:04:00.665Z,17.40
2023-10-02T17:06:29.220Z,17.77
2023-10-02T17:08:57.648Z,19.75
2023-10-02T17:11:29.207Z,18.88
2023-10-02T17:13:57.809Z,18.63
2023-10-02T17:16:26.314Z,18.13
2023-10-02T17:18:54.822Z,20.17
2023-10-02T17:21:30.764Z,20.95
2023-10-02T17:24:00.023Z,19.95
2023-10-02T17:26:32.461Z,18.25
2023-10-02T17:29:03.766Z,19.95
2023-10-02T17:31:32.511Z,19.33
2023-10-02T17:34:01.174Z,18.65
2023-10-02T17:36:30.590Z,20.05
2023-10-02T17:39:00.179Z,20.67
2023-10-02T17:41:30.496Z,21.50
2023-10-02T17:43:58.991Z,21.42
2023-10-02T17:46:27.480Z,19.35
2023-10-02T17:48:55.941Z,19.83
2023-10-02T17:51:25.985Z,20.63
2023-10-02T17:53:55.089Z,18.98
2023-10-02T17:56:23.599Z,19.63
2023-10-02T17:58:53.538Z,20.75
2023-10-02T18:01:21.989Z,20.80
2023-10-02T18:03:50.692Z,20.42
2023-10-02T18:06:20.845Z,22.13
2023-10-02T18:08:49.282Z,20.90
2023-10-02T18:11:17.714Z,22.38
2023-10-02T18:13:46.169Z,20.38
2023-10-02T18:16:19.662Z,20.67
2023-10-02T18:18:48.126Z,19.13
2023-10-02T18:21:17.336Z,21.73
2023-10-02T18:23:46.230Z,22.52
2023-10-02T18:26:14.788Z,25.38
2023-10-02T18:28:45.010Z,24.05
2023-10-02T18:31:13.935Z,23.25
2023-10-02T18:33:43.964Z,23.85
2023-10-02T18:36:12.540Z,24.40
2023-10-02T18:38:41.116Z,22.92
2023-10-02T18:41:11.842Z,23.33
2023-10-02T18:43:40.504Z,22.02
2023-10-02T18:46:09.466Z,26.33
2023-10-02T18:48:38.651Z,23.58
2023-10-02T18:51:17.594Z,25.02
2023-10-02T18:53:46.164Z,23.50
2023-10-02T18:56:14.854Z,25.33
2023-10-02T18:58:43.458Z,26.10
2023-10-02T19:01:15.541Z,26.83
2023-10-02T19:03:44.941Z,26.92
2023-10-02T19:06:19.566Z,28.10
2023-10-02T19:08:48.457Z,28.08
2023-10-02T19:11:17.735Z,29.38
2023-10-02T19:13:48.421Z,28.65
2023-10-02T19:16:18.402Z,29.08
2023-10-02T19:18:47.823Z,29.13
2023-10-02T19:21:17.684Z,28.10
2023-10-02T19:23:46.208Z,28.30
2023-10-02T19:26:14.777Z,29.40
2023-10-02T19:28:43.844Z,29.73
2023-10-02T19:31:12.826Z,33.72
2023-10-02T19:33:41.480Z,28.85
2023-10-02T19:36:09.977Z,30.15
2023-10-02T19:38:39.920Z,30.20
2023-10-02T19:41:16.103Z,28.10
2023-10-02T19:43:45.211Z,29.50
2023-10-02T19:46:15.682Z,28.23
2023-10-02T19:48:44.609Z,30.17
2023-10-02T19:51:14.822Z,30.23
2023-10-02T19:53:45.764Z,30.20
2023-10-02T19:56:15.323Z,29.33
2023-10-02T19:58:44.319Z,31.50
2023-10-02T20:01:12.886Z,31.43
2023-10-02T20:03:41.457Z,31.87
2023-10-02T20:06:12.010Z,31.90
2023-10-02T20:08:42.281Z,30.90
2023-10-02T20:11:12.778Z,30.20
2023-10-02T20:13:41.326Z,32.70
2023-10-02T20:16:09.980Z,32.80
2023-10-02T20:18:38.776Z,33.80
2023-10-02T20:21:07.448Z,33.13
2023-10-02T20:23:51.467Z,32.03
2023-10-02T20:26:22.322Z,33.40
2023-10-02T20:28:51.029Z,33.40
2023-10-02T20:31:19.528Z,32.93
2023-10-02T20:33:48.061Z,34.13
2023-10-02T20:36:16.559Z,34.03
2023-10-02T20:38:45.189Z,35.93
2023-10-02T20:41:13.673Z,34.70
2023-10-02T20:43:43.638Z,35.67
2023-10-02T20:46:15.639Z,35.00
2023-10-02T20:48:44.410Z,34.87
2023-10-02T20:51:15.227Z,36.43
2023-10-02T20:53:44.943Z,37.13
2023-10-02T20:56:13.563Z,35.87
2023-10-02T20:58:43.585Z,36.77
2023-10-02T21:01:14.184Z,36.83
2023-10-02T21:03:42.956Z,35.17
2023-10-02T21:06:11.493Z,36.47
2023-10-02T21:08:40.281Z,36.47
2023-10-02T21:11:08.820Z,37.13
2023-10-02T21:13:37.396Z,35.60
2023-10-02T21:16:07.506Z,37.23
2023-10-02T21:18:36.238Z,35.57
2023-10-02T21:21:05.324Z,34.60
2023-10-02T21:23:34.657Z,35.20
2023-10-02T21:26:05.531Z,34.00
2023-10-02T21:28:34.245Z,34.23
2023-10-02T21:31:04.623Z,32.73
2023-10-02T21:33:34.911Z,32.47
2023-10-02T21:36:06.082Z,31.70
2023-10-02T21:38:35.567Z,31.60
2023-10-02T21:41:13.052Z,31.83
2023-10-02T21:43:42.133Z,32.87
2023-10-02T21:46:11.799Z,33.70
2023-10-02T21:48:43.212Z,31.27
2023-10-02T21:51:13.223Z,30.80
2023-10-02T21:53:41.847Z,31.20
2023-10-02T21:56:17.125Z,33.03
2023-10-02T21:58:50.193Z,32.47
2023-10-02T22:01:19.211Z,31.53
2023-10-02T22:03:53.979Z,32.90
2023-10-02T22:06:23.030Z,30.57
2023-10-02T22:08:53.029Z,30.17
2023-10-02T22:11:22.585Z,31.20
2023-10-02T22:13:52.125Z,30.27
2023-10-02T22:16:20.774Z,30.07
2023-10-02T22:18:52.101Z,29.07
2023-10-02T22:21:24.652Z,28.57
2023-10-02T22:23:54.509Z,29.67
2023-10-02T22:26:23.543Z,29.03
2023-10-02T22:28:52.629Z,28.77
2023-10-02T22:31:21.821Z,27.77
2023-10-02T22:33:51.960Z,28.57
2023-10-02T22:36:20.897Z,28.33
2023-10-02T22:38:49.433Z,27.63
2023-10-02T22:41:17.896Z,27.30
2023-10-02T22:43:47.281Z,27.83
2023-10-02T22:46:16.020Z,28.13
2023-10-02T22:48:44.670Z,27.53
2023-10-02T22:51:19.702Z,27.37
2023-10-02T22:53:49.479Z,28.13
2023-10-02T22:56:19.105Z,26.63
2023-10-02T22:58:49.695Z,28.03
2023-10-02T23:01:18.359Z,27.97
2023-10-02T23:03:46.969Z,28.07
2023-10-02T23:06:16.979Z,28.53
2023-10-02T23:08:45.713Z,29.23
2023-10-02T23:11:15.211Z,29.37
2023-10-02T23:13:43.883Z,28.37
2023-10-02T23:16:13.593Z,28.37
2023-10-02T23:18:42.154Z,30.07
2023-10-02T23:21:10.637Z,29.70
2023-10-02T23:23:40.941Z,28.60
2023-10-02T23:26:18.039Z,29.27
2023-10-02T23:28:47.744Z,29.73
2023-10-02T23:31:16.512Z,28.70
2023-10-02T23:33:45.067Z,29.80
2023-10-02T23:36:14.626Z,30.07
2023-10-02T23:38:44.873Z,30.20
2023-10-02T23:41:16.210Z,29.37
2023-10-02T23:43:46.288Z,30.60
2023-10-02T23:46:15.834Z,29.20
2023-10-02T23:48:44.934Z,30.00
2023-10-02T23:51:14.566Z,28.17
2023-10-02T23:53:45.375Z,29.67
2023-10-02T23:56:15.808Z,28.23
2023-10-02T23:58:44.906Z,30.50
